sensor_id;sensor_type;location;lat;lon;timestamp;P1;durP1;ratioP1;P2;durP2;ratioP2
48375;SDS011;34178;50.904;11.560;2022-10-16T02:18:46;2.70;;;1.30;;
48375;SDS011;34178;50.904;11.560;2022-10-16T02:21:26;2.58;;;1.23;;
48375;SDS011;34178;50.904;11.560;2022-10-16T02:24:03;5.32;;;1.95;;
48375;SDS011;34178;50.904;11.560;2022-10-16T02:26:33;3.10;;;1.27;;
48375;SDS011;34178;50.904;11.560;2022-10-16T02:39:20;1.83;;;1.23;;
48375;SDS011;34178;50.904;11.560;2022-10-16T02:41:47;4.80;;;1.65;;
48375;SDS011;34178;50.904;11.560;2022-10-16T02:44:13;3.65;;;1.40;;
48375;SDS011;34178;50.904;11.560;2022-10-16T02:49:14;3.88;;;1.50;;
48375;SDS011;34178;50.904;11.560;2022-10-16T02:51:39;3.70;;;1.35;;
48375;SDS011;34178;50.904;11.560;2022-10-16T02:54:05;3.00;;;1.60;;
48375;SDS011;34178;50.904;11.560;2022-10-16T02:56:30;3.55;;;1.55;;
48375;SDS011;34178;50.904;11.560;2022-10-16T02:58:56;3.92;;;1.50;;
48375;SDS011;34178;50.904;11.560;2022-10-16T03:01:22;2.33;;;1.40;;
48375;SDS011;34178;50.904;11.560;2022-10-16T03:03:48;4.53;;;1.60;;
48375;SDS011;34178;50.904;11.560;2022-10-16T03:06:14;2.97;;;1.52;;
48375;SDS011;34178;50.904;11.560;2022-10-16T03:08:40;3.17;;;1.50;;
48375;SDS011;34178;50.904;11.560;2022-10-16T03:11:05;4.00;;;1.77;;
48375;SDS011;34178;50.904;11.560;2022-10-16T03:13:31;3.45;;;1.30;;
48375;SDS011;34178;50.904;11.560;2022-10-16T03:15:57;5.15;;;1.40;;
48375;SDS011;34178;50.904;11.560;2022-10-16T03:18:22;4.90;;;1.80;;
48375;SDS011;34178;50.904;11.560;2022-10-16T03:20:48;3.15;;;1.33;;
48375;SDS011;34178;50.904;11.560;2022-10-16T03:23:13;2.47;;;1.30;;
48375;SDS011;34178;50.904;11.560;2022-10-16T03:25:39;5.45;;;1.60;;
48375;SDS011;34178;50.904;11.560;2022-10-16T03:33:15;3.13;;;1.60;;
48375;SDS011;34178;50.904;11.560;2022-10-16T03:35:41;2.30;;;1.40;;
48375;SDS011;34178;50.904;11.560;2022-10-16T03:38:13;4.28;;;1.55;;
48375;SDS011;34178;50.904;11.560;2022-10-16T03:40:47;4.53;;;1.52;;
48375;SDS011;34178;50.904;11.560;2022-10-16T03:43:13;3.25;;;1.40;;
48375;SDS011;34178;50.904;11.560;2022-10-16T03:45:38;4.25;;;1.65;;
48375;SDS011;34178;50.904;11.560;2022-10-16T04:32:07;5.85;;;2.20;;
48375;SDS011;34178;50.904;11.560;2022-10-16T04:34:33;6.28;;;1.70;;
48375;SDS011;34178;50.904;11.560;2022-10-16T04:47:43;4.50;;;1.77;;
48375;SDS011;34178;50.904;11.560;2022-10-16T04:50:08;2.67;;;1.88;;
48375;SDS011;34178;50.904;11.560;2022-10-16T04:52:34;5.32;;;2.55;;
48375;SDS011;34178;50.904;11.560;2022-10-16T04:54:59;4.05;;;2.60;;
48375;SDS011;34178;50.904;11.560;2022-10-16T05:10:24;17.98;;;10.13;;
48375;SDS011;34178;50.904;11.560;2022-10-16T05:12:50;15.38;;;9.15;;
48375;SDS011;34178;50.904;11.560;2022-10-16T05:15:16;17.98;;;8.75;;
48375;SDS011;34178;50.904;11.560;2022-10-16T06:04:17;7.30;;;5.82;;
48375;SDS011;34178;50.904;11.560;2022-10-16T06:06:42;8.50;;;4.80;;
48375;SDS011;34178;50.904;11.560;2022-10-16T06:09:08;18.88;;;12.75;;
48375;SDS011;34178;50.904;11.560;2022-10-16T06:11:34;9.80;;;7.32;;
48375;SDS011;34178;50.904;11.560;2022-10-16T06:14:01;11.52;;;8.32;;
48375;SDS011;34178;50.904;11.560;2022-10-16T06:16:31;17.40;;;14.48;;
48375;SDS011;34178;50.904;11.560;2022-10-16T06:21:33;23.90;;;19.65;;
48375;SDS011;34178;50.904;11.560;2022-10-16T06:23:58;16.27;;;14.18;;
48375;SDS011;34178;50.904;11.560;2022-10-16T06:26:25;58.05;;;42.35;;
48375;SDS011;34178;50.904;11.560;2022-10-16T06:34:19;15.30;;;13.68;;
48375;SDS011;34178;50.904;11.560;2022-10-16T06:36:45;13.18;;;10.82;;
48375;SDS011;34178;50.904;11.560;2022-10-16T06:39:10;12.82;;;11.15;;
48375;SDS011;34178;50.904;11.560;2022-10-16T06:41:36;16.73;;;11.80;;
48375;SDS011;34178;50.904;11.560;2022-10-16T06:44:04;21.55;;;15.20;;
48375;SDS011;34178;50.904;11.560;2022-10-16T06:46:31;15.90;;;11.75;;
48375;SDS011;34178;50.904;11.560;2022-10-16T06:48:57;15.32;;;10.95;;
48375;SDS011;34178;50.904;11.560;2022-10-16T06:51:23;15.27;;;12.27;;
48375;SDS011;34178;50.904;11.560;2022-10-16T06:53:50;19.85;;;15.55;;
48375;SDS011;34178;50.904;11.560;2022-10-16T06:56:21;23.02;;;20.63;;
48375;SDS011;34178;50.904;11.560;2022-10-16T06:58:48;18.05;;;16.13;;
48375;SDS011;34178;50.904;11.560;2022-10-16T07:01:16;15.00;;;13.40;;
48375;SDS011;34178;50.904;11.560;2022-10-16T07:03:43;19.05;;;15.52;;
48375;SDS011;34178;50.904;11.560;2022-10-16T07:06:10;15.32;;;13.75;;
48375;SDS011;34178;50.904;11.560;2022-10-16T07:08:39;9.55;;;8.25;;
48375;SDS011;34178;50.904;11.560;2022-10-16T07:11:06;7.35;;;4.80;;
48375;SDS011;34178;50.904;11.560;2022-10-16T07:13:35;11.00;;;9.73;;
48375;SDS011;34178;50.904;11.560;2022-10-16T07:16:05;9.77;;;6.95;;
48375;SDS011;34178;50.904;11.560;2022-10-16T07:18:36;10.95;;;7.32;;
48375;SDS011;34178;50.904;11.560;2022-10-16T07:21:07;7.88;;;6.05;;
48375;SDS011;34178;50.904;11.560;2022-10-16T07:23:36;11.30;;;9.52;;
48375;SDS011;34178;50.904;11.560;2022-10-16T07:26:02;7.78;;;5.70;;
48375;SDS011;34178;50.904;11.560;2022-10-16T07:28:28;4.97;;;3.28;;
48375;SDS011;34178;50.904;11.560;2022-10-16T07:30:54;5.78;;;2.42;;
48375;SDS011;34178;50.904;11.560;2022-10-16T07:33:20;4.75;;;3.05;;
48375;SDS011;34178;50.904;11.560;2022-10-16T07:35:50;3.08;;;1.75;;
48375;SDS011;34178;50.904;11.560;2022-10-16T07:40:42;2.67;;;1.70;;
48375;SDS011;34178;50.904;11.560;2022-10-16T07:43:08;4.13;;;1.95;;
48375;SDS011;34178;50.904;11.560;2022-10-16T07:45:34;5.45;;;1.92;;
48375;SDS011;34178;50.904;11.560;2022-10-16T07:47:59;5.82;;;2.15;;
48375;SDS011;34178;50.904;11.560;2022-10-16T07:50:25;6.03;;;2.40;;
48375;SDS011;34178;50.904;11.560;2022-10-16T07:52:50;5.40;;;1.85;;
48375;SDS011;34178;50.904;11.560;2022-10-16T07:55:17;7.05;;;2.72;;
48375;SDS011;34178;50.904;11.560;2022-10-16T07:57:42;4.82;;;1.77;;
48375;SDS011;34178;50.904;11.560;2022-10-16T08:00:08;2.58;;;1.38;;
48375;SDS011;34178;50.904;11.560;2022-10-16T08:05:06;3.72;;;1.80;;
48375;SDS011;34178;50.904;11.560;2022-10-16T08:07:32;6.35;;;2.75;;
48375;SDS011;34178;50.904;11.560;2022-10-16T08:09:58;6.15;;;2.53;;
48375;SDS011;34178;50.904;11.560;2022-10-16T08:12:25;6.82;;;3.50;;
48375;SDS011;34178;50.904;11.560;2022-10-16T08:14:51;5.03;;;3.00;;
48375;SDS011;34178;50.904;11.560;2022-10-16T08:17:16;4.85;;;1.88;;
48375;SDS011;34178;50.904;11.560;2022-10-16T08:19:45;5.50;;;2.83;;
48375;SDS011;34178;50.904;11.560;2022-10-16T08:22:12;4.70;;;2.25;;
48375;SDS011;34178;50.904;11.560;2022-10-16T08:24:39;2.75;;;1.50;;
48375;SDS011;34178;50.904;11.560;2022-10-16T08:27:05;2.60;;;1.15;;
48375;SDS011;34178;50.904;11.560;2022-10-16T08:29:31;4.30;;;2.00;;
48375;SDS011;34178;50.904;11.560;2022-10-16T08:31:57;3.78;;;1.15;;
48375;SDS011;34178;50.904;11.560;2022-10-16T08:34:22;3.45;;;1.63;;
48375;SDS011;34178;50.904;11.560;2022-10-16T08:36:48;2.78;;;1.40;;
48375;SDS011;34178;50.904;11.560;2022-10-16T08:39:14;2.45;;;1.30;;
48375;SDS011;34178;50.904;11.560;2022-10-16T08:42:03;2.25;;;1.20;;
48375;SDS011;34178;50.904;11.560;2022-10-16T08:49:57;6.28;;;2.88;;
48375;SDS011;34178;50.904;11.560;2022-10-16T08:52:27;7.78;;;4.20;;
48375;SDS011;34178;50.904;11.560;2022-10-16T08:55:00;4.97;;;2.58;;
48375;SDS011;34178;50.904;11.560;2022-10-16T08:57:27;7.30;;;2.35;;
48375;SDS011;34178;50.904;11.560;2022-10-16T08:59:52;6.03;;;2.00;;
48375;SDS011;34178;50.904;11.560;2022-10-16T09:02:32;5.18;;;2.58;;
48375;SDS011;34178;50.904;11.560;2022-10-16T09:10:29;12.20;;;5.53;;
48375;SDS011;34178;50.904;11.560;2022-10-16T09:13:26;7.82;;;3.20;;
48375;SDS011;34178;50.904;11.560;2022-10-16T09:19:00;3.33;;;1.90;;
48375;SDS011;34178;50.904;11.560;2022-10-16T09:21:47;4.28;;;2.20;;
48375;SDS011;34178;50.904;11.560;2022-10-16T09:24:17;6.30;;;1.65;;
48375;SDS011;34178;50.904;11.560;2022-10-16T09:26:45;4.75;;;2.25;;
48375;SDS011;34178;50.904;11.560;2022-10-16T09:29:16;7.50;;;3.05;;
48375;SDS011;34178;50.904;11.560;2022-10-16T09:31:45;4.55;;;2.45;;
48375;SDS011;34178;50.904;11.560;2022-10-16T09:34:32;3.17;;;1.80;;
48375;SDS011;34178;50.904;11.560;2022-10-16T09:37:03;2.70;;;1.70;;
48375;SDS011;34178;50.904;11.560;2022-10-16T09:39:50;3.63;;;2.20;;
48375;SDS011;34178;50.904;11.560;2022-10-16T09:42:22;2.92;;;1.77;;
48375;SDS011;34178;50.904;11.560;2022-10-16T09:44:55;2.75;;;1.40;;
48375;SDS011;34178;50.904;11.560;2022-10-16T09:47:28;4.65;;;1.85;;
48375;SDS011;34178;50.904;11.560;2022-10-16T09:49:59;3.05;;;1.50;;
48375;SDS011;34178;50.904;11.560;2022-10-16T09:52:45;2.47;;;1.30;;
48375;SDS011;34178;50.904;11.560;2022-10-16T09:55:15;3.63;;;1.30;;
48375;SDS011;34178;50.904;11.560;2022-10-16T09:57:52;2.25;;;1.23;;
48375;SDS011;34178;50.904;11.560;2022-10-16T10:00:19;2.42;;;1.30;;
48375;SDS011;34178;50.904;11.560;2022-10-16T10:02:45;2.83;;;1.75;;
48375;SDS011;34178;50.904;11.560;2022-10-16T10:05:30;1.88;;;1.15;;
48375;SDS011;34178;50.904;11.560;2022-10-16T10:08:02;2.17;;;1.40;;
48375;SDS011;34178;50.904;11.560;2022-10-16T10:10:34;3.83;;;1.60;;
48375;SDS011;34178;50.904;11.560;2022-10-16T10:13:16;3.17;;;1.60;;
48375;SDS011;34178;50.904;11.560;2022-10-16T10:15:46;5.57;;;2.33;;
48375;SDS011;34178;50.904;11.560;2022-10-16T10:18:16;4.15;;;1.30;;
48375;SDS011;34178;50.904;11.560;2022-10-16T10:20:56;3.75;;;1.40;;
48375;SDS011;34178;50.904;11.560;2022-10-16T10:23:24;4.70;;;1.80;;
48375;SDS011;34178;50.904;11.560;2022-10-16T10:33:58;4.03;;;1.30;;
48375;SDS011;34178;50.904;11.560;2022-10-16T10:36:59;2.60;;;1.20;;
48375;SDS011;34178;50.904;11.560;2022-10-16T10:42:36;1.85;;;1.13;;
48375;SDS011;34178;50.904;11.560;2022-10-16T10:45:26;4.70;;;1.40;;
48375;SDS011;34178;50.904;11.560;2022-10-16T10:48:03;2.35;;;0.93;;
48375;SDS011;34178;50.904;11.560;2022-10-16T10:50:39;4.03;;;1.42;;
48375;SDS011;34178;50.904;11.560;2022-10-16T10:55:53;3.80;;;1.15;;
48375;SDS011;34178;50.904;11.560;2022-10-16T11:01:14;2.88;;;1.13;;
48375;SDS011;34178;50.904;11.560;2022-10-16T11:06:35;3.20;;;1.00;;
48375;SDS011;34178;50.904;11.560;2022-10-16T11:09:12;3.03;;;1.70;;
48375;SDS011;34178;50.904;11.560;2022-10-16T11:14:36;4.60;;;1.20;;
48375;SDS011;34178;50.904;11.560;2022-10-16T11:17:16;2.88;;;1.33;;
48375;SDS011;34178;50.904;11.560;2022-10-16T11:22:51;1.67;;;0.90;;
48375;SDS011;34178;50.904;11.560;2022-10-16T11:25:22;2.80;;;1.33;;
48375;SDS011;34178;50.904;11.560;2022-10-16T11:28:12;2.00;;;1.00;;
48375;SDS011;34178;50.904;11.560;2022-10-16T11:41:52;1.80;;;1.17;;
48375;SDS011;34178;50.904;11.560;2022-10-16T11:50:09;2.10;;;1.23;;
48375;SDS011;34178;50.904;11.560;2022-10-16T11:52:43;2.63;;;0.90;;
48375;SDS011;34178;50.904;11.560;2022-10-16T11:55:21;3.08;;;0.70;;
48375;SDS011;34178;50.904;11.560;2022-10-16T11:57:57;1.40;;;0.90;;
48375;SDS011;34178;50.904;11.560;2022-10-16T12:00:40;3.28;;;1.40;;
48375;SDS011;34178;50.904;11.560;2022-10-16T12:08:28;1.10;;;0.65;;
48375;SDS011;34178;50.904;11.560;2022-10-16T12:11:03;2.42;;;0.90;;
48375;SDS011;34178;50.904;11.560;2022-10-16T12:13:44;1.52;;;0.80;;
48375;SDS011;34178;50.904;11.560;2022-10-16T12:36:49;4.15;;;1.10;;
48375;SDS011;34178;50.904;11.560;2022-10-16T12:39:24;5.47;;;1.60;;
48375;SDS011;34178;50.904;11.560;2022-10-16T12:42:05;2.70;;;1.48;;
48375;SDS011;34178;50.904;11.560;2022-10-16T12:44:45;0.93;;;0.55;;
48375;SDS011;34178;50.904;11.560;2022-10-16T16:46:08;7.70;;;3.50;;
48375;SDS011;34178;50.904;11.560;2022-10-16T16:51:10;15.35;;;8.93;;
48375;SDS011;34178;50.904;11.560;2022-10-16T16:53:40;12.48;;;7.55;;
48375;SDS011;34178;50.904;11.560;2022-10-16T16:56:06;12.35;;;5.55;;
48375;SDS011;34178;50.904;11.560;2022-10-16T18:32:56;10.95;;;3.00;;
48375;SDS011;34178;50.904;11.560;2022-10-16T18:35:22;8.02;;;4.55;;
48375;SDS011;34178;50.904;11.560;2022-10-16T18:37:48;7.72;;;4.30;;
48375;SDS011;34178;50.904;11.560;2022-10-16T18:40:13;7.47;;;3.90;;
48375;SDS011;34178;50.904;11.560;2022-10-16T18:42:39;27.10;;;20.23;;
48375;SDS011;34178;50.904;11.560;2022-10-16T18:45:05;20.27;;;10.13;;
48375;SDS011;34178;50.904;11.560;2022-10-16T18:47:31;14.38;;;9.55;;
48375;SDS011;34178;50.904;11.560;2022-10-16T18:49:59;12.77;;;8.05;;
48375;SDS011;34178;50.904;11.560;2022-10-16T18:52:24;22.25;;;19.75;;
48375;SDS011;34178;50.904;11.560;2022-10-16T18:54:53;16.95;;;9.65;;
48375;SDS011;34178;50.904;11.560;2022-10-16T18:59:56;13.15;;;8.77;;
48375;SDS011;34178;50.904;11.560;2022-10-16T19:02:21;16.73;;;11.55;;
48375;SDS011;34178;50.904;11.560;2022-10-16T19:04:47;15.45;;;13.07;;
48375;SDS011;34178;50.904;11.560;2022-10-16T19:17:34;22.42;;;11.35;;
48375;SDS011;34178;50.904;11.560;2022-10-16T19:20:02;14.05;;;9.43;;
48375;SDS011;34178;50.904;11.560;2022-10-16T19:22:29;9.80;;;6.68;;
48375;SDS011;34178;50.904;11.560;2022-10-16T19:25:15;10.02;;;6.22;;
48375;SDS011;34178;50.904;11.560;2022-10-16T19:27:41;10.13;;;6.38;;
48375;SDS011;34178;50.904;11.560;2022-10-16T19:30:06;8.23;;;5.72;;
48375;SDS011;34178;50.904;11.560;2022-10-16T19:32:33;11.90;;;5.95;;
48375;SDS011;34178;50.904;11.560;2022-10-16T19:34:58;8.98;;;4.90;;
48375;SDS011;34178;50.904;11.560;2022-10-16T19:37:24;16.23;;;8.43;;
48375;SDS011;34178;50.904;11.560;2022-10-16T19:39:51;9.98;;;4.35;;
48375;SDS011;34178;50.904;11.560;2022-10-16T19:42:17;7.03;;;4.20;;
48375;SDS011;34178;50.904;11.560;2022-10-16T19:44:43;9.52;;;4.20;;
48375;SDS011;34178;50.904;11.560;2022-10-16T19:47:08;22.25;;;10.82;;
48375;SDS011;34178;50.904;11.560;2022-10-16T19:49:34;14.05;;;7.03;;
48375;SDS011;34178;50.904;11.560;2022-10-16T19:52:00;16.15;;;7.80;;
48375;SDS011;34178;50.904;11.560;2022-10-16T19:54:25;11.00;;;4.82;;
48375;SDS011;34178;50.904;11.560;2022-10-16T19:56:51;15.80;;;7.85;;
48375;SDS011;34178;50.904;11.560;2022-10-16T19:59:17;8.35;;;4.43;;
48375;SDS011;34178;50.904;11.560;2022-10-16T20:01:44;9.85;;;5.82;;
48375;SDS011;34178;50.904;11.560;2022-10-16T20:04:10;12.90;;;6.75;;
48375;SDS011;34178;50.904;11.560;2022-10-16T20:06:37;13.35;;;6.30;;
48375;SDS011;34178;50.904;11.560;2022-10-16T20:09:03;11.27;;;4.90;;
48375;SDS011;34178;50.904;11.560;2022-10-16T20:11:30;8.95;;;4.18;;
48375;SDS011;34178;50.904;11.560;2022-10-16T20:13:57;18.33;;;11.52;;
48375;SDS011;34178;50.904;11.560;2022-10-16T20:16:24;12.98;;;9.05;;
48375;SDS011;34178;50.904;11.560;2022-10-16T20:18:51;10.30;;;6.90;;
48375;SDS011;34178;50.904;11.560;2022-10-16T20:21:18;6.53;;;4.47;;
48375;SDS011;34178;50.904;11.560;2022-10-16T20:23:49;5.65;;;3.53;;
48375;SDS011;34178;50.904;11.560;2022-10-16T20:26:17;5.63;;;3.42;;
48375;SDS011;34178;50.904;11.560;2022-10-16T20:28:44;7.65;;;4.00;;
48375;SDS011;34178;50.904;11.560;2022-10-16T20:31:13;5.65;;;3.13;;
48375;SDS011;34178;50.904;11.560;2022-10-16T20:33:42;6.40;;;3.78;;
48375;SDS011;34178;50.904;11.560;2022-10-16T20:36:11;6.82;;;3.45;;
48375;SDS011;34178;50.904;11.560;2022-10-16T20:38:38;10.00;;;3.55;;
48375;SDS011;34178;50.904;11.560;2022-10-16T20:41:04;6.15;;;3.80;;
48375;SDS011;34178;50.904;11.560;2022-10-16T20:43:32;7.45;;;3.85;;
48375;SDS011;34178;50.904;11.560;2022-10-16T20:46:02;8.15;;;2.67;;
48375;SDS011;34178;50.904;11.560;2022-10-16T20:48:29;8.18;;;3.15;;
48375;SDS011;34178;50.904;11.560;2022-10-16T20:50:55;5.55;;;2.80;;
48375;SDS011;34178;50.904;11.560;2022-10-16T20:53:21;7.90;;;2.70;;
48375;SDS011;34178;50.904;11.560;2022-10-16T20:55:47;4.78;;;2.47;;
48375;SDS011;34178;50.904;11.560;2022-10-16T20:58:12;6.28;;;3.40;;
48375;SDS011;34178;50.904;11.560;2022-10-16T21:00:38;9.43;;;5.25;;
48375;SDS011;34178;50.904;11.560;2022-10-16T21:03:04;7.30;;;3.70;;
48375;SDS011;34178;50.904;11.560;2022-10-16T21:05:30;4.85;;;2.92;;
48375;SDS011;34178;50.904;11.560;2022-10-16T21:07:58;6.45;;;4.50;;
48375;SDS011;34178;50.904;11.560;2022-10-16T21:10:24;7.95;;;3.90;;
48375;SDS011;34178;50.904;11.560;2022-10-16T21:12:53;5.97;;;3.00;;
48375;SDS011;34178;50.904;11.560;2022-10-16T21:15:21;7.70;;;3.75;;
48375;SDS011;34178;50.904;11.560;2022-10-16T21:17:47;8.40;;;2.58;;
48375;SDS011;34178;50.904;11.560;2022-10-16T21:20:13;5.90;;;2.50;;
48375;SDS011;34178;50.904;11.560;2022-10-16T21:22:38;7.55;;;2.30;;
48375;SDS011;34178;50.904;11.560;2022-10-16T21:25:04;4.80;;;2.42;;
48375;SDS011;34178;50.904;11.560;2022-10-16T21:27:35;8.18;;;2.50;;
48375;SDS011;34178;50.904;11.560;2022-10-16T21:30:05;6.50;;;2.65;;
48375;SDS011;34178;50.904;11.560;2022-10-16T21:32:35;9.48;;;3.17;;
48375;SDS011;34178;50.904;11.560;2022-10-16T21:35:04;5.97;;;2.67;;
48375;SDS011;34178;50.904;11.560;2022-10-16T21:37:31;4.78;;;2.50;;
48375;SDS011;34178;50.904;11.560;2022-10-16T21:39:57;5.35;;;2.53;;
48375;SDS011;34178;50.904;11.560;2022-10-16T21:42:22;5.90;;;3.30;;
48375;SDS011;34178;50.904;11.560;2022-10-16T21:44:48;8.07;;;3.75;;
48375;SDS011;34178;50.904;11.560;2022-10-16T21:47:14;7.78;;;4.13;;
48375;SDS011;34178;50.904;11.560;2022-10-16T21:49:39;8.48;;;4.07;;
48375;SDS011;34178;50.904;11.560;2022-10-16T21:52:05;6.78;;;3.45;;
48375;SDS011;34178;50.904;11.560;2022-10-16T21:54:30;7.60;;;2.80;;
48375;SDS011;34178;50.904;11.560;2022-10-16T21:56:56;6.68;;;2.47;;
48375;SDS011;34178;50.904;11.560;2022-10-16T21:59:22;7.88;;;2.70;;
48375;SDS011;34178;50.904;11.560;2022-10-16T22:01:47;10.25;;;2.72;;
48375;SDS011;34178;50.904;11.560;2022-10-16T22:04:14;4.75;;;2.40;;
48375;SDS011;34178;50.904;11.560;2022-10-16T22:06:40;6.22;;;2.97;;
48375;SDS011;34178;50.904;11.560;2022-10-16T22:09:06;8.00;;;2.83;;
48375;SDS011;34178;50.904;11.560;2022-10-16T22:11:34;8.88;;;2.80;;
48375;SDS011;34178;50.904;11.560;2022-10-16T22:14:01;7.28;;;3.08;;
48375;SDS011;34178;50.904;11.560;2022-10-16T22:16:32;8.65;;;3.10;;
48375;SDS011;34178;50.904;11.560;2022-10-16T22:18:58;8.00;;;2.80;;
48375;SDS011;34178;50.904;11.560;2022-10-16T22:21:26;6.50;;;2.90;;
48375;SDS011;34178;50.904;11.560;2022-10-16T22:23:52;7.25;;;3.20;;
48375;SDS011;34178;50.904;11.560;2022-10-16T22:26:18;8.75;;;3.47;;
48375;SDS011;34178;50.904;11.560;2022-10-16T22:28:44;8.35;;;3.10;;
48375;SDS011;34178;50.904;11.560;2022-10-16T22:31:10;8.55;;;3.50;;
48375;SDS011;34178;50.904;11.560;2022-10-16T22:33:37;6.07;;;2.45;;
48375;SDS011;34178;50.904;11.560;2022-10-16T22:36:03;4.40;;;2.58;;
48375;SDS011;34178;50.904;11.560;2022-10-16T22:38:31;4.32;;;2.33;;
48375;SDS011;34178;50.904;11.560;2022-10-16T22:41:08;4.93;;;2.50;;
48375;SDS011;34178;50.904;11.560;2022-10-16T22:43:39;5.55;;;2.42;;
48375;SDS011;34178;50.904;11.560;2022-10-16T22:46:07;5.80;;;2.35;;
48375;SDS011;34178;50.904;11.560;2022-10-16T22:48:35;4.75;;;2.60;;
48375;SDS011;34178;50.904;11.560;2022-10-16T22:51:02;8.15;;;2.65;;
48375;SDS011;34178;50.904;11.560;2022-10-16T22:53:29;5.40;;;2.85;;
48375;SDS011;34178;50.904;11.560;2022-10-16T22:55:54;7.75;;;2.83;;
48375;SDS011;34178;50.904;11.560;2022-10-16T22:58:20;7.00;;;2.88;;
48375;SDS011;34178;50.904;11.560;2022-10-16T23:00:46;7.07;;;3.05;;
48375;SDS011;34178;50.904;11.560;2022-10-16T23:03:12;8.07;;;3.03;;
48375;SDS011;34178;50.904;11.560;2022-10-16T23:05:38;8.52;;;3.33;;
48375;SDS011;34178;50.904;11.560;2022-10-16T23:08:05;6.50;;;3.28;;
48375;SDS011;34178;50.904;11.560;2022-10-16T23:10:31;7.38;;;2.88;;
48375;SDS011;34178;50.904;11.560;2022-10-16T23:12:57;9.60;;;3.13;;
48375;SDS011;34178;50.904;11.560;2022-10-16T23:15:23;6.68;;;3.25;;
48375;SDS011;34178;50.904;11.560;2022-10-16T23:17:48;9.05;;;2.83;;
48375;SDS011;34178;50.904;11.560;2022-10-16T23:20:14;5.72;;;2.67;;
48375;SDS011;34178;50.904;11.560;2022-10-16T23:22:40;4.80;;;2.70;;
48375;SDS011;34178;50.904;11.560;2022-10-16T23:25:05;4.35;;;2.47;;
48375;SDS011;34178;50.904;11.560;2022-10-16T23:27:33;3.83;;;2.05;;
48375;SDS011;34178;50.904;11.560;2022-10-16T23:29:58;8.93;;;3.55;;
48375;SDS011;34178;50.904;11.560;2022-10-16T23:32:24;12.27;;;3.63;;
48375;SDS011;34178;50.904;11.560;2022-10-16T23:34:50;8.40;;;3.65;;
48375;SDS011;34178;50.904;11.560;2022-10-16T23:37:15;5.60;;;3.25;;
48375;SDS011;34178;50.904;11.560;2022-10-16T23:39:41;7.15;;;3.22;;
48375;SDS011;34178;50.904;11.560;2022-10-16T23:42:07;9.80;;;4.10;;
48375;SDS011;34178;50.904;11.560;2022-10-16T23:44:32;5.97;;;3.47;;
48375;SDS011;34178;50.904;11.560;2022-10-16T23:46:58;7.80;;;3.92;;
48375;SDS011;34178;50.904;11.560;2022-10-16T23:49:24;10.63;;;3.40;;
48375;SDS011;34178;50.904;11.560;2022-10-16T23:51:50;7.28;;;3.17;;
48375;SDS011;34178;50.904;11.560;2022-10-16T23:54:15;7.38;;;3.28;;
48375;SDS011;34178;50.904;11.560;2022-10-16T23:56:41;8.82;;;3.53;;
48375;SDS011;34178;50.904;11.560;2022-10-16T23:59:07;6.65;;;3.40;;
